createdAt,value
2022-12-25T00:01:46.244Z,4.78
2022-12-25T00:05:47.947Z,6.22
2022-12-25T00:09:49.677Z,6.75
2022-12-25T00:13:51.244Z,5.45
2022-12-25T00:17:53.043Z,6.68
2022-12-25T00:21:54.670Z,5.60
2022-12-25T00:25:56.863Z,7.25
2022-12-25T00:29:58.348Z,7.35
2022-12-25T00:34:00.084Z,6.65
2022-12-25T00:38:01.648Z,6.90
2022-12-25T00:42:18.691Z,6.72
2022-12-25T00:46:20.313Z,6.22
2022-12-25T00:50:22.263Z,5.68
2022-12-25T00:54:23.780Z,6.18
2022-12-25T00:58:27.414Z,7.07
2022-12-25T01:02:28.908Z,6.40
2022-12-25T01:06:30.644Z,6.50
2022-12-25T01:10:32.136Z,4.65
2022-12-25T01:14:33.724Z,5.20
2022-12-25T01:18:35.777Z,5.65
2022-12-25T01:22:37.527Z,5.63
2022-12-25T01:26:39.012Z,5.18
2022-12-25T01:30:47.279Z,5.25
2022-12-25T01:34:53.867Z,4.53
2022-12-25T01:38:57.640Z,3.83
2022-12-25T01:42:59.215Z,4.35
2022-12-25T01:47:00.718Z,4.68
2022-12-25T01:51:07.310Z,4.03
2022-12-25T01:55:11.261Z,4.13
2022-12-25T01:59:16.336Z,4.50
2022-12-25T02:03:19.162Z,4.40
2022-12-25T02:07:24.252Z,4.43
2022-12-25T02:11:44.277Z,5.00
2022-12-25T02:15:59.407Z,4.13
2022-12-25T02:20:19.751Z,4.03
2022-12-25T02:24:27.412Z,3.80
2022-12-25T02:29:02.868Z,3.40
2022-12-25T02:33:33.922Z,4.25
2022-12-25T02:37:42.453Z,4.40
2022-12-25T02:41:47.968Z,3.95
2022-12-25T02:46:28.185Z,3.97
2022-12-25T02:50:48.458Z,4.30
2022-12-25T02:55:15.447Z,3.72
2022-12-25T02:59:38.472Z,4.20
2022-12-25T03:04:01.403Z,4.65
2022-12-25T03:08:08.759Z,3.95
2022-12-25T03:12:22.089Z,3.92
2022-12-25T03:16:42.353Z,4.57
2022-12-25T03:21:02.959Z,3.85
2022-12-25T03:25:23.805Z,3.97
2022-12-25T03:29:47.823Z,3.72
2022-12-25T03:34:37.210Z,3.92
2022-12-25T03:39:18.090Z,3.97
2022-12-25T03:43:51.266Z,3.17
2022-12-25T03:48:13.416Z,3.00
2022-12-25T03:52:37.917Z,3.30
2022-12-25T03:56:59.100Z,3.25
2022-12-25T04:01:18.940Z,3.13
2022-12-25T04:05:39.301Z,4.28
2022-12-25T04:09:59.220Z,3.47
2022-12-25T04:14:19.075Z,3.97
2022-12-25T04:18:39.125Z,4.30
2022-12-25T04:22:59.455Z,3.75
2022-12-25T04:27:19.676Z,3.63
2022-12-25T04:31:39.821Z,3.63
2022-12-25T04:36:20.750Z,3.58
2022-12-25T04:40:22.259Z,3.35
2022-12-25T04:44:23.786Z,3.72
2022-12-25T04:48:26.431Z,4.10
2022-12-25T04:52:28.233Z,4.22
2022-12-25T04:56:29.944Z,4.22
2022-12-25T05:00:31.495Z,3.22
2022-12-25T05:04:33.122Z,3.67
2022-12-25T05:08:36.223Z,3.80
2022-12-25T05:12:37.762Z,3.65
2022-12-25T05:16:39.344Z,4.22
2022-12-25T05:20:40.854Z,4.22
2022-12-25T05:24:42.389Z,4.75
2022-12-25T05:28:44.086Z,4.43
2022-12-25T05:32:47.459Z,3.88
2022-12-25T05:36:48.974Z,3.80
2022-12-25T05:40:52.037Z,3.33
2022-12-25T05:44:53.574Z,4.47
2022-12-25T05:48:55.219Z,4.10
2022-12-25T05:53:00.187Z,3.63
2022-12-25T05:57:04.680Z,3.63
2022-12-25T06:01:15.659Z,4.43
2022-12-25T06:05:17.366Z,3.95
2022-12-25T06:09:19.318Z,5.03
2022-12-25T06:13:20.827Z,4.22
2022-12-25T06:17:26.223Z,4.93
2022-12-25T06:21:27.846Z,4.07
2022-12-25T06:25:29.334Z,4.32
2022-12-25T06:29:30.944Z,4.40
2022-12-25T06:33:32.449Z,4.15
2022-12-25T06:37:34.224Z,4.15
2022-12-25T06:41:36.233Z,4.32
2022-12-25T06:45:37.839Z,4.40
2022-12-25T06:49:39.374Z,4.90
2022-12-25T06:53:41.125Z,4.55
2022-12-25T06:57:42.741Z,5.35
2022-12-25T07:01:54.892Z,4.93
2022-12-25T07:05:56.542Z,5.75
2022-12-25T07:09:58.050Z,5.28
2022-12-25T07:13:59.613Z,5.93
2022-12-25T07:18:01.575Z,5.00
2022-12-25T07:22:03.125Z,5.18
2022-12-25T07:26:05.236Z,5.40
2022-12-25T07:30:07.258Z,5.75
2022-12-25T07:34:08.978Z,5.82
2022-12-25T07:38:11.293Z,4.90
2022-12-25T07:42:13.013Z,5.63
2022-12-25T07:46:14.537Z,5.22
2022-12-25T07:50:16.549Z,4.60
2022-12-25T07:54:18.344Z,5.65
2022-12-25T07:58:23.268Z,4.40
2022-12-25T08:02:28.759Z,4.30
2022-12-25T08:06:33.746Z,5.15
2022-12-25T08:10:37.244Z,4.43
2022-12-25T08:14:38.787Z,5.03
2022-12-25T08:18:40.569Z,4.60
2022-12-25T08:22:42.054Z,5.10
2022-12-25T08:26:43.604Z,4.47
2022-12-25T08:30:45.361Z,4.15
2022-12-25T08:34:46.913Z,4.93
2022-12-25T08:38:49.070Z,4.65
2022-12-25T08:42:50.676Z,4.68
2022-12-25T08:46:52.177Z,5.28
2022-12-25T08:50:54.380Z,5.68
2022-12-25T08:54:56.203Z,5.18
2022-12-25T08:58:57.716Z,5.13
2022-12-25T09:02:59.454Z,5.53
2022-12-25T09:07:02.624Z,5.10
2022-12-25T09:11:06.997Z,4.75
2022-12-25T09:15:09.235Z,4.82
2022-12-25T09:19:10.874Z,4.93
2022-12-25T09:23:14.282Z,5.32
2022-12-25T09:27:16.294Z,5.60
2022-12-25T09:31:17.952Z,5.43
2022-12-25T09:35:19.609Z,5.13
2022-12-25T09:39:21.156Z,4.68
2022-12-25T09:43:23.521Z,4.88
2022-12-25T09:47:29.189Z,4.70
2022-12-25T09:51:35.442Z,4.63
2022-12-25T09:55:45.965Z,4.47
2022-12-25T09:59:47.621Z,3.88
2022-12-25T10:04:20.027Z,4.63
2022-12-25T10:08:33.917Z,4.32
2022-12-25T10:12:59.799Z,4.40
2022-12-25T10:17:31.421Z,4.32
2022-12-25T10:21:33.544Z,4.00
2022-12-25T10:25:38.833Z,4.22
2022-12-25T10:33:42.969Z,4.10
2022-12-25T10:37:52.701Z,4.18
2022-12-25T10:42:22.982Z,3.78
2022-12-25T10:50:29.009Z,3.63
2022-12-25T10:54:34.981Z,4.28
2022-12-25T10:58:36.432Z,4.03
2022-12-25T11:02:40.786Z,4.45
2022-12-25T11:06:42.709Z,4.72
2022-12-25T11:10:53.536Z,4.40
2022-12-25T11:15:00.725Z,3.80
2022-12-25T11:19:02.700Z,4.13
2022-12-25T11:23:10.522Z,4.18
2022-12-25T11:27:23.695Z,3.95
2022-12-25T11:31:53.165Z,3.65
2022-12-25T11:35:56.921Z,4.45
2022-12-25T11:39:58.479Z,4.05
2022-12-25T11:44:06.893Z,4.15
2022-12-25T11:48:18.003Z,3.83
2022-12-25T11:52:21.025Z,4.15
2022-12-25T11:56:26.119Z,4.10
2022-12-25T12:00:30.951Z,4.05
2022-12-25T12:04:43.166Z,4.18
2022-12-25T12:08:48.904Z,4.20
2022-12-25T12:13:16.530Z,3.70
2022-12-25T12:17:18.921Z,4.32
2022-12-25T12:21:27.319Z,3.97
2022-12-25T12:25:30.185Z,4.80
2022-12-25T12:29:42.954Z,4.95
2022-12-25T12:33:57.511Z,5.20
2022-12-25T12:38:02.186Z,4.80
2022-12-25T12:42:17.815Z,3.95
2022-12-25T12:46:30.516Z,4.13
2022-12-25T12:50:40.767Z,4.45
2022-12-25T12:54:59.045Z,5.05
2022-12-25T12:59:00.659Z,4.43
2022-12-25T13:03:36.135Z,3.72
2022-12-25T13:08:02.261Z,4.07
2022-12-25T13:12:08.449Z,3.53
2022-12-25T13:16:24.302Z,4.53
2022-12-25T13:20:38.516Z,4.75
2022-12-25T13:24:40.045Z,5.13
2022-12-25T13:28:41.724Z,5.32
2022-12-25T13:32:45.643Z,5.60
2022-12-25T13:36:48.457Z,4.30
2022-12-25T13:41:14.747Z,4.80
2022-12-25T13:45:23.751Z,4.57
2022-12-25T13:49:25.289Z,5.03
2022-12-25T13:53:27.038Z,5.20
2022-12-25T13:57:34.487Z,5.22
2022-12-25T14:01:42.501Z,4.65
2022-12-25T14:05:44.157Z,5.55
2022-12-25T14:09:48.645Z,5.13
2022-12-25T14:13:54.479Z,5.10
2022-12-25T14:17:56.830Z,5.20
2022-12-25T14:22:21.517Z,5.15
2022-12-25T14:26:27.535Z,5.55
2022-12-25T14:34:32.471Z,4.22
2022-12-25T14:38:35.108Z,4.93
2022-12-25T14:42:36.853Z,5.32
2022-12-25T14:46:38.412Z,5.35
2022-12-25T14:50:50.913Z,4.57
2022-12-25T14:55:00.018Z,5.32
2022-12-25T14:59:03.552Z,4.15
2022-12-25T15:03:08.319Z,4.93
2022-12-25T15:07:30.802Z,4.78
2022-12-25T15:11:32.853Z,7.50
2022-12-25T15:15:34.767Z,5.78
2022-12-25T15:19:38.813Z,4.93
2022-12-25T15:23:40.609Z,6.20
2022-12-25T15:27:42.512Z,5.38
2022-12-25T15:31:44.205Z,5.00
2022-12-25T15:35:45.972Z,5.85
2022-12-25T15:39:47.707Z,5.60
2022-12-25T15:43:49.368Z,6.72
2022-12-25T15:47:51.377Z,6.78
2022-12-25T15:51:52.929Z,6.88
2022-12-25T15:55:54.503Z,5.90
2022-12-25T15:59:56.015Z,6.80
2022-12-25T16:03:57.629Z,6.85
2022-12-25T16:07:59.266Z,6.57
2022-12-25T16:12:00.951Z,6.57
2022-12-25T16:16:03.568Z,7.13
2022-12-25T16:20:06.577Z,7.25
2022-12-25T16:24:08.623Z,7.55
2022-12-25T16:28:10.355Z,7.85
2022-12-25T16:32:12.700Z,7.28
2022-12-25T16:36:14.290Z,7.10
2022-12-25T16:40:15.843Z,7.72
2022-12-25T16:44:17.530Z,9.27
2022-12-25T16:48:19.099Z,7.68
2022-12-25T16:52:21.049Z,6.78
2022-12-25T16:56:28.179Z,7.45
2022-12-25T17:00:29.785Z,7.38
2022-12-25T17:04:31.321Z,7.97
2022-12-25T17:08:32.823Z,7.72
2022-12-25T17:12:34.643Z,7.95
2022-12-25T17:16:38.051Z,8.07
2022-12-25T17:20:39.653Z,8.30
2022-12-25T17:24:41.622Z,9.30
2022-12-25T17:28:43.372Z,8.77
2022-12-25T17:32:44.906Z,9.13
2022-12-25T17:36:46.682Z,10.00
2022-12-25T17:40:56.450Z,8.35
2022-12-25T17:44:58.011Z,8.45
2022-12-25T17:49:01.051Z,9.02
2022-12-25T17:53:04.691Z,9.98
2022-12-25T17:57:06.444Z,8.88
2022-12-25T18:01:14.072Z,8.80
2022-12-25T18:05:15.737Z,9.07
2022-12-25T18:09:18.838Z,9.15
2022-12-25T18:13:20.350Z,9.00
2022-12-25T18:17:21.883Z,8.75
2022-12-25T18:21:23.689Z,8.82
2022-12-25T18:25:25.517Z,8.20
2022-12-25T18:29:27.139Z,9.38
2022-12-25T18:33:28.635Z,8.35
2022-12-25T18:37:35.887Z,7.75
2022-12-25T18:42:01.077Z,7.25
2022-12-25T18:46:04.324Z,8.00
2022-12-25T18:50:07.141Z,7.63
2022-12-25T18:54:10.533Z,7.18
2022-12-25T18:58:12.011Z,7.60
2022-12-25T19:02:15.329Z,8.63
2022-12-25T19:06:25.754Z,7.55
2022-12-25T19:10:27.391Z,6.75
2022-12-25T19:14:29.135Z,7.95
2022-12-25T19:18:30.910Z,7.38
2022-12-25T19:22:32.439Z,6.88
2022-12-25T19:26:35.759Z,6.43
2022-12-25T19:30:38.426Z,6.70
2022-12-25T19:34:40.002Z,6.95
2022-12-25T19:38:43.203Z,7.00
2022-12-25T19:42:44.829Z,6.88
2022-12-25T19:46:46.435Z,6.50
2022-12-25T19:50:47.991Z,6.05
2022-12-25T19:54:52.843Z,6.82
2022-12-25T19:58:55.490Z,7.00
2022-12-25T20:02:57.290Z,6.03
2022-12-25T20:06:59.034Z,5.60
2022-12-25T20:11:00.606Z,5.32
2022-12-25T20:15:02.183Z,5.65
2022-12-25T20:19:04.963Z,5.85
2022-12-25T20:23:06.900Z,5.63
2022-12-25T20:27:08.478Z,5.72
2022-12-25T20:31:20.307Z,5.68
2022-12-25T20:35:21.835Z,5.03
2022-12-25T20:39:23.512Z,5.28
2022-12-25T20:43:25.141Z,5.60
2022-12-25T20:47:26.826Z,5.88
2022-12-25T20:51:28.357Z,5.45
2022-12-25T20:55:29.907Z,5.85
2022-12-25T20:59:37.119Z,5.97
2022-12-25T21:03:40.730Z,5.93
2022-12-25T21:07:42.367Z,6.35
2022-12-25T21:11:44.059Z,5.88
2022-12-25T21:15:47.005Z,6.57
2022-12-25T21:19:48.548Z,5.97
2022-12-25T21:23:50.896Z,6.30
2022-12-25T21:27:52.675Z,6.28
2022-12-25T21:32:12.836Z,5.93
2022-12-25T21:36:15.001Z,6.55
2022-12-25T21:40:16.824Z,6.25
2022-12-25T21:44:18.323Z,6.43
2022-12-25T21:48:19.880Z,6.22
2022-12-25T21:52:21.521Z,6.38
2022-12-25T21:56:23.050Z,6.15
2022-12-25T22:00:24.558Z,5.85
2022-12-25T22:04:26.468Z,5.28
2022-12-25T22:08:32.236Z,5.82
2022-12-25T22:12:52.742Z,5.90
2022-12-25T22:17:12.932Z,5.80
2022-12-25T22:21:21.522Z,6.45
2022-12-25T22:25:24.619Z,5.57
2022-12-25T22:29:26.242Z,6.03
2022-12-25T22:33:29.266Z,5.97
2022-12-25T22:37:30.851Z,6.22
2022-12-25T22:41:33.876Z,6.53
2022-12-25T22:45:35.492Z,6.70
2022-12-25T22:49:37.155Z,6.65
2022-12-25T22:53:38.652Z,6.68
2022-12-25T22:57:40.119Z,7.47
2022-12-25T23:01:42.331Z,6.57
2022-12-25T23:05:43.943Z,6.45
2022-12-25T23:09:45.500Z,6.78
2022-12-25T23:14:05.889Z,7.38
2022-12-25T23:18:26.270Z,7.30
2022-12-25T23:22:46.299Z,6.65
2022-12-25T23:26:47.803Z,5.78
2022-12-25T23:30:49.362Z,6.30
2022-12-25T23:34:52.202Z,6.38
2022-12-25T23:38:53.762Z,6.10
2022-12-25T23:42:55.898Z,5.70
2022-12-25T23:46:57.559Z,5.82
2022-12-25T23:51:05.399Z,5.78
2022-12-25T23:55:08.444Z,5.50
2022-12-25T23:59:11.020Z,5.95
